Time;durP1;ratioP1;P1;durP2;ratioP2;P2;SDS_P1;SDS_P2;PMS_P1;PMS_P2;Temp;Humidity;BMP_temperature;BMP_pressure;BME280_temperature;BME280_humidity;BME280_pressure;Samples;Min_cycle;Max_cycle;Signal;HPM_P1;HPM_P2
2023/12/29 00:02:02;;;;;;;12.85;8.40;;;;;;;-0.54;100.00;97982.16;1223883;75;2922586;-64
2023/12/29 00:04:35;;;;;;;15.10;9.95;;;;;;;-0.54;100.00;97990.22;1224152;75;2921256;-64
2023/12/29 00:07:08;;;;;;;13.90;9.10;;;;;;;-0.31;100.00;97973.56;1223573;75;2940399;-62
2023/12/29 00:09:41;;;;;;;10.90;8.15;;;;;;;-0.33;100.00;97962.44;1224587;75;2921327;-64
2023/12/29 00:12:14;;;;;;;8.95;6.90;;;;;;;-0.15;100.00;97961.53;1224487;75;2919761;-62
2023/12/29 00:14:49;;;;;;;8.30;6.50;;;;;;;-0.18;100.00;97965.78;1224102;75;2922077;-62
2023/12/29 00:17:22;;;;;;;8.10;5.85;;;;;;;-0.11;100.00;97962.28;1224077;75;2919470;-63
2023/12/29 00:19:55;;;;;;;6.70;4.85;;;;;;;-0.13;100.00;97949.22;1224320;75;2920849;-65
2023/12/29 00:22:28;;;;;;;5.50;4.40;;;;;;;-0.15;100.00;97965.00;1223883;75;2928743;-64
2023/12/29 00:25:02;;;;;;;6.30;4.40;;;;;;;-0.35;100.00;97953.22;1224782;75;2921308;-64
2023/12/29 00:27:35;;;;;;;6.40;4.65;;;;;;;-0.45;100.00;97952.91;1224598;75;2920654;-63
2023/12/29 00:30:12;;;;;;;6.45;4.55;;;;;;;-0.31;100.00;97959.38;1224061;75;2923596;-63
2023/12/29 00:32:45;;;;;;;5.80;4.35;;;;;;;-0.30;100.00;97947.44;1224127;75;2924266;-65
2023/12/29 00:35:18;;;;;;;4.80;3.85;;;;;;;-0.28;100.00;97948.56;1224299;75;2920270;-64
2023/12/29 00:37:51;;;;;;;7.30;5.10;;;;;;;-0.51;100.00;97951.78;1224446;75;2924787;-66
2023/12/29 00:40:24;;;;;;;7.45;5.45;;;;;;;-0.65;100.00;97941.91;1224217;75;2937118;-64
2023/12/29 00:42:56;;;;;;;7.85;5.25;;;;;;;-0.45;100.00;97949.47;1224587;75;2920906;-66
2023/12/29 00:45:35;;;;;;;7.15;5.30;;;;;;;-0.56;100.00;97940.69;1224372;75;2922753;-64
2023/12/29 00:48:10;;;;;;;6.15;4.90;;;;;;;-0.49;100.00;97952.16;1224143;75;2929957;-63
2023/12/29 00:50:42;;;;;;;6.75;4.85;;;;;;;-0.48;100.00;97944.84;1223865;75;2921258;-64
2023/12/29 00:53:15;;;;;;;6.15;4.45;;;;;;;-0.52;100.00;97952.94;1223978;75;2934061;-63
2023/12/29 00:55:48;;;;;;;8.25;4.80;;;;;;;-0.68;100.00;97960.72;1223942;75;2932515;-64
2023/12/29 00:58:21;;;;;;;6.90;5.30;;;;;;;-0.55;100.00;97961.81;1224144;75;2915617;-64
2023/12/29 01:00:56;;;;;;;7.75;5.55;;;;;;;-0.67;100.00;97956.91;1223620;75;2919166;-65
2023/12/29 01:03:29;;;;;;;9.00;6.80;;;;;;;-0.69;100.00;97961.91;1224172;75;2912477;-65
2023/12/29 01:06:02;;;;;;;8.75;6.35;;;;;;;-0.88;100.00;97966.59;1224596;67;2917468;-63
2023/12/29 01:08:35;;;;;;;9.65;7.05;;;;;;;-0.81;100.00;97967.72;1224288;75;2922724;-65
2023/12/29 01:11:09;;;;;;;8.65;6.70;;;;;;;-0.50;100.00;97966.00;1224349;75;2922698;-65
2023/12/29 01:13:42;;;;;;;8.15;5.95;;;;;;;-0.43;100.00;97969.41;1223523;75;2925868;-65
2023/12/29 01:16:18;;;;;;;6.55;4.70;;;;;;;-0.46;100.00;97961.34;1223069;75;2924038;-61
2023/12/29 01:18:51;;;;;;;7.50;5.30;;;;;;;-0.51;100.00;97961.78;1223208;75;2891903;-63
2023/12/29 01:21:24;;;;;;;7.95;5.65;;;;;;;-0.62;100.00;97961.84;1223959;75;2923136;-65
2023/12/29 01:23:56;;;;;;;9.55;6.95;;;;;;;-0.67;100.00;97962.28;1224146;75;2919529;-65
2023/12/29 01:26:29;;;;;;;8.20;5.80;;;;;;;-0.36;100.00;97954.38;1225182;75;2908760;-62
2023/12/29 01:29:02;;;;;;;6.35;5.15;;;;;;;-0.42;100.00;97948.66;1224220;75;2923799;-65
2023/12/29 01:31:38;;;;;;;6.85;4.70;;;;;;;-0.34;100.00;97960.13;1221427;75;3043837;-66
2023/12/29 01:34:10;;;;;;;7.00;4.75;;;;;;;-0.54;100.00;97955.28;1224150;75;2923527;-63
2023/12/29 01:36:43;;;;;;;5.90;4.85;;;;;;;-0.36;100.00;97965.94;1224271;75;2914452;-65
2023/12/29 01:39:17;;;;;;;5.95;4.50;;;;;;;-0.52;100.00;97963.72;1223753;75;2924162;-64
2023/12/29 01:41:50;;;;;;;7.00;4.70;;;;;;;-0.35;100.00;97959.38;1224246;75;2932050;-63
2023/12/29 01:44:24;;;;;;;5.50;4.45;;;;;;;-0.43;100.00;97955.97;1224088;75;2927762;-66
2023/12/29 01:47:05;;;;;;;9.05;5.35;;;;;;;-0.47;100.00;97951.78;1224255;75;2928946;-65
2023/12/29 01:49:39;;;;;;;4.60;3.65;;;;;;;-0.31;100.00;97962.06;1224242;75;2916554;-65
2023/12/29 01:52:12;;;;;;;5.70;3.80;;;;;;;-0.38;100.00;97956.72;1223896;75;2918562;-64
2023/12/29 01:54:46;;;;;;;7.45;4.75;;;;;;;-0.56;100.00;97944.13;1223860;75;2929118;-65
2023/12/29 01:57:19;;;;;;;6.35;4.70;;;;;;;-0.46;100.00;97940.63;1223695;75;2923741;-65
2023/12/29 01:59:52;;;;;;;4.60;3.80;;;;;;;-0.41;100.00;97928.66;1224053;75;2918571;-63
2023/12/29 02:02:28;;;;;;;4.60;3.40;;;;;;;-0.46;100.00;97937.94;1223602;75;2925289;-64
2023/12/29 02:05:01;;;;;;;4.20;3.10;;;;;;;-0.37;100.00;97928.66;1224572;75;2919862;-63
2023/12/29 02:07:34;;;;;;;5.25;3.55;;;;;;;-0.44;100.00;97927.53;1224173;75;2919560;-65
2023/12/29 02:10:07;;;;;;;4.70;3.60;;;;;;;-0.50;100.00;97920.31;1224060;75;2922615;-65
2023/12/29 02:12:40;;;;;;;4.35;3.25;;;;;;;-0.55;100.00;97918.78;1224452;75;2914465;-63
2023/12/29 02:15:14;;;;;;;4.55;3.30;;;;;;;-0.63;100.00;97909.22;1224278;75;2920546;-62
2023/12/29 02:18:00;;;;;;;5.45;3.80;;;;;;;-0.76;100.00;97911.63;1223783;75;2921621;-63
2023/12/29 02:20:33;;;;;;;5.55;4.40;;;;;;;-0.74;100.00;97903.94;1223818;75;2918517;-65
2023/12/29 02:23:07;;;;;;;5.20;3.85;;;;;;;-0.65;100.00;97900.78;1222992;75;2917282;-65
2023/12/29 02:25:42;;;;;;;5.30;3.85;;;;;;;-0.80;100.00;97902.03;1223855;75;2918201;-63
2023/12/29 02:28:30;;;;;;;5.10;4.05;;;;;;;-0.90;100.00;97904.41;1223567;75;2928169;-64
2023/12/29 02:31:09;;;;;;;5.50;3.85;;;;;;;-0.74;100.00;97898.56;1224822;67;2917930;-64
2023/12/29 02:33:46;;;;;;;5.80;4.45;;;;;;;-0.77;100.00;97906.63;1223663;75;2925776;-65
2023/12/29 02:36:21;;;;;;;5.05;3.95;;;;;;;-0.84;100.00;97891.34;1224718;75;2926106;-64
2023/12/29 02:38:55;;;;;;;5.00;3.50;;;;;;;-0.76;100.00;97883.97;1223877;75;2925469;-65
2023/12/29 02:41:30;;;;;;;5.20;3.60;;;;;;;-0.76;100.00;97883.97;1223185;75;2931702;-64
2023/12/29 02:44:03;;;;;;;4.75;3.55;;;;;;;-0.86;100.00;97893.66;1224453;75;2916845;-66
2023/12/29 02:46:36;;;;;;;4.65;3.70;;;;;;;-0.95;100.00;97898.69;1223432;75;2929759;-64
2023/12/29 02:49:12;;;;;;;8.10;4.85;;;;;;;-0.96;100.00;97892.53;1223816;75;2918656;-64
2023/12/29 02:51:45;;;;;;;8.10;5.55;;;;;;;-1.18;100.00;97894.59;1223791;75;2931822;-66
2023/12/29 02:54:18;;;;;;;8.65;5.95;;;;;;;-1.04;100.00;97899.09;1224198;75;2929190;-62
2023/12/29 02:56:54;;;;;;;8.65;5.40;;;;;;;-0.91;100.00;97897.50;1223500;75;2934369;-63
2023/12/29 02:59:27;;;;;;;8.55;5.20;;;;;;;-0.94;100.00;97890.25;1224336;75;2925077;-63
2023/12/29 03:01:59;;;;;;;8.15;5.05;;;;;;;-1.01;100.00;97890.28;1224361;75;2918533;-64
2023/12/29 03:04:32;;;;;;;6.80;4.95;;;;;;;-0.96;100.00;97891.75;1223336;75;2924739;-64
2023/12/29 03:07:06;;;;;;;6.40;4.80;;;;;;;-0.97;100.00;97892.94;1224217;75;2920588;-63
2023/12/29 03:09:36;;;;;;;8.70;5.70;;;;;;;-1.09;100.00;97894.91;1224246;67;2936497;-62
2023/12/29 03:12:12;;;;;;;7.60;4.90;;;;;;;-1.16;100.00;97904.91;1224700;75;2920159;-63
2023/12/29 03:14:46;;;;;;;5.95;4.60;;;;;;;-1.13;100.00;97894.16;1221179;75;2955946;-62
2023/12/29 03:17:19;;;;;;;7.55;5.20;;;;;;;-1.25;100.00;97899.19;1224717;75;2916723;-63
2023/12/29 03:19:52;;;;;;;8.05;6.00;;;;;;;-1.20;100.00;97896.09;1224791;75;2921734;-64
2023/12/29 03:22:25;;;;;;;9.85;6.50;;;;;;;-1.24;100.00;97900.75;1223781;75;2942392;-63
2023/12/29 03:24:58;;;;;;;8.90;5.85;;;;;;;-1.21;100.00;97899.97;1224353;75;2922045;-63
2023/12/29 03:27:33;;;;;;;7.35;5.30;;;;;;;-1.02;100.00;97893.34;1224127;75;2923616;-65
2023/12/29 03:30:06;;;;;;;6.70;4.40;;;;;;;-1.01;100.00;97895.66;1223425;75;2923337;-64
2023/12/29 03:32:39;;;;;;;8.35;5.05;;;;;;;-1.26;100.00;97897.69;1224996;75;2905245;-64
2023/12/29 03:35:12;;;;;;;7.00;4.90;;;;;;;-1.31;100.00;97896.16;1224908;75;2922283;-61
2023/12/29 03:37:45;;;;;;;6.45;4.25;;;;;;;-1.08;100.00;97893.75;1224030;75;2933208;-64
2023/12/29 03:40:18;;;;;;;5.90;4.20;;;;;;;-1.23;100.00;97884.22;1224459;75;2921121;-63
2023/12/29 03:42:54;;;;;;;4.70;3.70;;;;;;;-1.14;100.00;97881.88;1224626;75;2924272;-64
2023/12/29 03:45:27;;;;;;;5.95;4.45;;;;;;;-1.20;100.00;97880.00;1224206;75;2938980;-64
2023/12/29 03:47:59;;;;;;;5.40;3.85;;;;;;;-1.20;100.00;97872.72;1224798;75;2915670;-62
2023/12/29 03:50:32;;;;;;;6.00;4.10;;;;;;;-1.20;100.00;97871.94;1224202;75;2920504;-63
2023/12/29 03:53:05;;;;;;;5.75;4.20;;;;;;;-1.21;100.00;97871.16;1223344;75;2931531;-63
2023/12/29 03:55:38;;;;;;;5.20;3.85;;;;;;;-1.13;100.00;97866.53;1222912;75;2931919;-64
2023/12/29 03:58:14;;;;;;;3.80;3.30;;;;;;;-1.20;100.00;97872.72;1224010;75;2921579;-63
2023/12/29 04:00:46;;;;;;;4.55;3.60;;;;;;;-1.15;100.00;97871.53;1222688;75;2935107;-66
2023/12/29 04:03:19;;;;;;;4.25;3.15;;;;;;;-1.20;100.00;97872.72;1223906;75;2930299;-64
2023/12/29 04:05:52;;;;;;;3.75;2.70;;;;;;;-1.29;100.00;97877.75;1223745;75;2919252;-66
2023/12/29 04:08:25;;;;;;;6.55;4.10;;;;;;;-1.47;100.00;97874.34;1223779;75;2928134;-64
2023/12/29 04:10:58;;;;;;;6.35;4.50;;;;;;;-1.34;100.00;97878.91;1224098;75;2931544;-64
2023/12/29 04:13:34;;;;;;;4.90;3.75;;;;;;;-1.42;100.00;97872.06;1224437;75;2927093;-65
2023/12/29 04:16:08;;;;;;;5.80;3.75;;;;;;;-1.42;100.00;97866.69;1223369;75;2929936;-65
2023/12/29 04:18:40;;;;;;;6.00;4.25;;;;;;;-1.48;100.00;97868.22;1223094;75;2918763;-65
2023/12/29 04:21:18;;;;;;;6.10;4.40;;;;;;;-1.56;100.00;97867.50;1224211;75;2915288;-65
2023/12/29 04:23:50;;;;;;;7.25;4.45;;;;;;;-1.64;100.00;97865.97;1223376;75;2931621;-63
2023/12/29 04:26:23;;;;;;;6.40;4.30;;;;;;;-1.61;100.00;97875.94;1223912;67;2926026;-64
2023/12/29 04:28:59;;;;;;;7.10;4.40;;;;;;;-1.58;100.00;97869.03;1223321;75;2929387;-65
2023/12/29 04:31:31;;;;;;;6.45;4.80;;;;;;;-1.68;100.00;97872.50;1223485;75;2921811;-63
2023/12/29 04:34:04;;;;;;;8.55;5.35;;;;;;;-1.64;100.00;97876.72;1222802;75;2926564;-64
2023/12/29 04:36:37;;;;;;;6.65;4.70;;;;;;;-1.69;100.00;97890.53;1223194;75;2940510;-64
2023/12/29 04:39:10;;;;;;;6.90;4.70;;;;;;;-1.66;100.00;97892.47;1223279;75;2930307;-64
2023/12/29 04:41:43;;;;;;;5.45;3.70;;;;;;;-1.59;100.00;97892.44;1223462;75;2925821;-64
2023/12/29 04:44:18;;;;;;;5.85;3.95;;;;;;;-1.65;100.00;97888.63;1222933;75;2937443;-65
2023/12/29 04:46:51;;;;;;;6.35;4.85;;;;;;;-1.69;100.00;97887.09;1222878;75;2945831;-63
2023/12/29 04:49:24;;;;;;;6.80;5.30;;;;;;;-1.64;100.00;97890.13;1222471;75;2932341;-64
2023/12/29 04:51:57;;;;;;;8.70;5.15;;;;;;;-1.61;100.00;97889.38;1223492;75;2927339;-65
2023/12/29 04:54:30;;;;;;;5.95;4.30;;;;;;;-1.78;100.00;97874.84;1224144;75;2922990;-62
2023/12/29 04:57:02;;;;;;;5.95;4.20;;;;;;;-1.63;100.00;97870.19;1223108;75;2923680;-63
2023/12/29 04:59:38;;;;;;;7.35;4.10;;;;;;;-1.66;100.00;97875.56;1222431;75;2929018;-65
2023/12/29 05:02:11;;;;;;;5.70;3.80;;;;;;;-1.67;100.00;97877.50;1223102;75;2926715;-62
2023/12/29 05:04:44;;;;;;;4.85;3.70;;;;;;;-1.68;100.00;97883.25;1223314;75;2942444;-65
2023/12/29 05:07:17;;;;;;;6.65;4.40;;;;;;;-1.83;100.00;97885.19;1222561;75;2927295;-64
2023/12/29 05:09:50;;;;;;;6.95;4.55;;;;;;;-1.71;100.00;97895.53;1222409;75;2922994;-63
2023/12/29 05:12:23;;;;;;;6.30;4.40;;;;;;;-1.67;100.00;97896.28;1222613;75;2929946;-64
2023/12/29 05:14:58;;;;;;;5.25;3.40;;;;;;;-1.67;100.00;97890.91;1223072;75;2929037;-65
2023/12/29 05:17:31;;;;;;;4.95;3.70;;;;;;;-1.77;100.00;97889.03;1224113;75;2930308;-63
2023/12/29 05:20:04;;;;;;;4.45;3.00;;;;;;;-1.73;100.00;97882.50;1223577;75;2926253;-63
2023/12/29 05:22:37;;;;;;;4.40;3.15;;;;;;;-1.70;100.00;97889.00;1223255;75;2931896;-64
2023/12/29 05:25:11;;;;;;;4.30;2.75;;;;;;;-1.72;100.00;97889.38;1223557;75;2926897;-62
2023/12/29 05:27:44;;;;;;;3.85;2.90;;;;;;;-1.75;100.00;97895.53;1224027;75;2920876;-64
2023/12/29 05:30:20;;;;;;;3.50;2.75;;;;;;;-1.76;100.00;97890.56;1223984;75;2915301;-64
2023/12/29 05:32:53;;;;;;;2.85;2.25;;;;;;;-1.73;100.00;97903.22;1223883;75;2924989;-63
2023/12/29 05:35:26;;;;;;;2.90;2.20;;;;;;;-1.74;100.00;97907.78;1222774;75;2942025;-64
2023/12/29 05:37:59;;;;;;;3.90;2.80;;;;;;;-1.74;100.00;97901.66;1224058;75;2927753;-63
2023/12/29 05:40:32;;;;;;;3.05;2.25;;;;;;;-1.75;100.00;97906.28;1223709;75;2922110;-65
2023/12/29 05:43:05;;;;;;;3.10;2.55;;;;;;;-1.76;100.00;97904.72;1223310;75;2926219;-65
2023/12/29 05:45:40;;;;;;;2.45;2.25;;;;;;;-1.81;100.00;97912.41;1223121;75;2933888;-63
2023/12/29 05:48:14;;;;;;;2.45;2.10;;;;;;;-1.76;100.00;97912.03;1222747;75;2920853;-62
2023/12/29 05:50:46;;;;;;;2.80;2.30;;;;;;;-1.87;100.00;97908.59;1223246;75;2938071;-62
2023/12/29 05:53:19;;;;;;;4.25;3.00;;;;;;;-1.90;100.00;97915.50;1223646;75;2927886;-63
2023/12/29 05:55:52;;;;;;;3.40;2.80;;;;;;;-1.88;100.00;97915.13;1222238;75;2934979;-64
2023/12/29 05:58:26;;;;;;;3.75;2.70;;;;;;;-1.86;100.00;97916.25;1223725;75;2919668;-63
2023/12/29 06:01:02;;;;;;;6.50;3.80;;;;;;;-1.93;100.00;97914.34;1223543;75;2936935;-64
2023/12/29 06:03:35;;;;;;;6.15;3.65;;;;;;;-1.94;100.00;97917.44;1223651;75;2923631;-66
2023/12/29 06:06:08;;;;;;;5.85;4.05;;;;;;;-1.95;100.00;97919.34;1223045;75;2927089;-63
2023/12/29 06:08:41;;;;;;;6.70;4.05;;;;;;;-2.09;100.00;97924.72;1224126;75;2918727;-61
2023/12/29 06:11:19;;;;;;;5.25;4.10;;;;;;;-1.95;100.00;97921.25;1222577;75;2930038;-65
2023/12/29 06:13:52;;;;;;;6.80;5.00;;;;;;;-2.07;100.00;97910.91;1223986;75;2927589;-63
2023/12/29 06:16:29;;;;;;;6.40;4.10;;;;;;;-1.99;100.00;97918.59;1223044;75;2930092;-63
2023/12/29 06:19:02;;;;;;;7.30;4.75;;;;;;;-1.95;100.00;97915.88;1223210;75;2931783;-67
2023/12/29 06:21:35;;;;;;;6.00;4.85;;;;;;;-1.89;100.00;97918.97;1222529;75;2920708;-63
2023/12/29 06:24:08;;;;;;;5.05;3.85;;;;;;;-1.89;100.00;97914.34;1220971;75;2933645;-66
2023/12/29 06:26:43;;;;;;;4.00;3.10;;;;;;;-1.82;100.00;97918.94;1222464;75;2922926;-62
2023/12/29 06:29:16;;;;;;;4.45;3.50;;;;;;;-2.05;100.00;97924.72;1221822;75;2933295;-62
2023/12/29 06:31:51;;;;;;;4.55;3.45;;;;;;;-1.94;100.00;97931.59;1223636;75;2920435;-64
2023/12/29 06:34:24;;;;;;;6.70;4.80;;;;;;;-1.93;100.00;97930.44;1224779;75;2921388;-62
2023/12/29 06:36:57;;;;;;;9.15;6.35;;;;;;;-1.88;100.00;97931.97;1224571;75;2918309;-63
2023/12/29 06:39:30;;;;;;;9.25;5.50;;;;;;;-1.86;100.00;97928.91;1224515;75;2922532;-61
2023/12/29 06:42:03;;;;;;;18.60;12.45;;;;;;;-2.02;100.00;97932.78;1224850;75;2929030;-61
2023/12/29 06:44:36;;;;;;;15.85;10.70;;;;;;;-2.20;100.00;97934.69;1224946;75;2931142;-61
2023/12/29 06:47:12;;;;;;;13.40;7.60;;;;;;;-2.19;100.00;97939.69;1223568;75;2908776;-62
2023/12/29 06:49:45;;;;;;;7.50;5.60;;;;;;;-2.23;100.00;97930.09;1222028;75;2934662;-63
2023/12/29 06:52:18;;;;;;;7.15;5.40;;;;;;;-2.09;100.00;97942.72;1223616;75;2930259;-63
2023/12/29 06:54:51;;;;;;;7.85;5.80;;;;;;;-2.11;100.00;97940.44;1223639;75;2923980;-63
2023/12/29 06:57:24;;;;;;;7.55;5.05;;;;;;;-2.17;100.00;97945.41;1223583;75;2930915;-64
2023/12/29 06:59:57;;;;;;;7.25;4.75;;;;;;;-2.03;100.00;97963.41;1223694;75;2925551;-65
2023/12/29 07:02:32;;;;;;;7.10;4.95;;;;;;;-1.97;100.00;97956.53;1223423;75;2915425;-63
2023/12/29 07:05:06;;;;;;;9.35;7.25;;;;;;;-1.82;100.00;97964.56;1223102;75;2935184;-64
2023/12/29 07:07:40;;;;;;;15.85;9.80;;;;;;;-1.92;100.00;97960.75;1223630;75;2933874;-63
2023/12/29 07:10:16;;;;;;;14.45;10.00;;;;;;;-1.81;100.00;97968.78;1223843;75;2926289;-63
2023/12/29 07:12:49;;;;;;;13.60;9.40;;;;;;;-1.74;100.00;97960.72;1223335;75;2946792;-66
2023/12/29 07:15:22;;;;;;;27.15;17.00;;;;;;;-1.58;100.00;97968.38;1223658;75;2917144;-63
2023/12/29 07:17:58;;;;;;;16.90;11.40;;;;;;;-1.56;100.00;97969.50;1223804;75;2923909;-64
2023/12/29 07:20:31;;;;;;;16.95;12.45;;;;;;;-1.50;100.00;97973.31;1223725;75;2925446;-66
2023/12/29 07:23:05;;;;;;;14.80;10.80;;;;;;;-1.37;100.00;97973.69;1223823;75;2932091;-63
2023/12/29 07:25:38;;;;;;;10.55;8.20;;;;;;;-1.36;100.00;97977.13;1223958;75;2925943;-62
2023/12/29 07:28:11;;;;;;;10.40;7.70;;;;;;;-1.29;100.00;97967.13;1224265;75;2918307;-66
2023/12/29 07:30:44;;;;;;;7.35;5.65;;;;;;;-1.31;100.00;97974.03;1221086;75;2921990;-66
2023/12/29 07:33:19;;;;;;;6.10;4.75;;;;;;;-1.11;100.00;97974.34;1223799;75;2924854;-65
2023/12/29 07:35:52;;;;;;;9.35;6.10;;;;;;;-1.00;100.00;97983.16;1224292;75;2927788;-65
2023/12/29 07:38:25;;;;;;;8.80;6.70;;;;;;;-0.97;100.00;97989.66;1223917;75;2929644;-61
2023/12/29 07:40:58;;;;;;;16.45;10.35;;;;;;;-0.94;100.00;97978.91;1223862;75;2928168;-62
2023/12/29 07:43:31;;;;;;;13.20;8.80;;;;;;;-0.82;100.00;97974.25;1224499;75;2921513;-66
2023/12/29 07:46:03;;;;;;;9.25;6.85;;;;;;;-0.16;100.00;97982.31;1223321;75;2928675;-63
2023/12/29 07:48:39;;;;;;;8.20;6.20;;;;;;;1.06;100.00;97978.44;1223463;75;2927079;-62
2023/12/29 07:51:13;;;;;;;7.95;5.60;;;;;;;1.65;100.00;97979.97;1223936;75;2929884;-64
2023/12/29 07:53:46;;;;;;;6.75;5.15;;;;;;;1.75;100.00;97979.06;1221852;75;2927344;-64
2023/12/29 07:56:19;;;;;;;6.50;4.75;;;;;;;2.10;100.00;97969.66;1223717;75;2925182;-63
2023/12/29 07:58:52;;;;;;;6.10;4.50;;;;;;;2.15;100.00;97986.56;1223070;75;2932409;-64
2023/12/29 08:01:25;;;;;;;5.20;4.00;;;;;;;1.98;100.00;97980.28;1223305;75;2931609;-64
2023/12/29 08:04:01;;;;;;;5.05;4.00;;;;;;;1.80;100.00;97980.53;1223433;75;2924343;-63
2023/12/29 08:06:33;;;;;;;4.20;3.25;;;;;;;2.09;100.00;97978.16;1223060;75;2922194;-65
2023/12/29 08:09:07;;;;;;;4.00;3.60;;;;;;;2.23;100.00;97979.84;1222428;75;2918782;-65
2023/12/29 08:11:42;;;;;;;4.45;3.45;;;;;;;2.41;100.00;97983.03;1224075;75;2917137;-62
2023/12/29 08:14:15;;;;;;;4.20;3.30;;;;;;;2.03;100.00;97982.50;1222994;75;2924846;-62
2023/12/29 08:16:48;;;;;;;6.20;4.90;;;;;;;1.91;100.00;97987.28;1222710;75;2924816;-65
2023/12/29 08:19:23;;;;;;;7.25;5.25;;;;;;;1.56;100.00;97988.56;1223405;75;2924250;-66
2023/12/29 08:21:56;;;;;;;8.00;5.50;;;;;;;1.21;100.00;97981.72;1223313;75;2953626;-64
2023/12/29 08:24:29;;;;;;;8.20;5.70;;;;;;;1.40;100.00;97991.88;1223908;67;2923117;-63
2023/12/29 08:27:02;;;;;;;7.30;5.20;;;;;;;1.55;100.00;97987.06;1224106;75;2920173;-65
2023/12/29 08:29:35;;;;;;;5.95;4.90;;;;;;;2.02;100.00;97984.44;1223631;75;2927352;-62
2023/12/29 08:32:09;;;;;;;6.40;4.10;;;;;;;2.05;100.00;97982.84;1222264;75;2922837;-62
2023/12/29 08:34:44;;;;;;;7.80;5.60;;;;;;;2.39;100.00;97979.22;1223522;75;2923937;-63
2023/12/29 08:37:19;;;;;;;5.95;5.00;;;;;;;2.73;100.00;97968.94;1223164;75;2934305;-66
2023/12/29 08:39:52;;;;;;;5.15;4.20;;;;;;;2.69;100.00;97970.91;1221999;75;2945634;-63
2023/12/29 08:42:26;;;;;;;5.60;4.15;;;;;;;3.14;100.00;97948.03;1223122;75;2910842;-63
2023/12/29 08:44:59;;;;;;;4.50;4.05;;;;;;;3.79;98.30;97950.84;1223262;75;2924575;-65
2023/12/29 08:47:32;;;;;;;5.85;4.10;;;;;;;3.42;99.97;97938.56;1223135;83;2921028;-62
2023/12/29 08:50:09;;;;;;;8.00;5.10;;;;;;;2.91;100.00;97944.25;1222495;75;2927137;-62
2023/12/29 08:52:41;;;;;;;11.10;7.80;;;;;;;2.88;100.00;97955.13;1223517;75;2931006;-64
2023/12/29 08:55:14;;;;;;;11.05;8.20;;;;;;;3.25;100.00;97967.53;1222627;75;2924629;-62
2023/12/29 08:57:47;;;;;;;10.70;7.40;;;;;;;3.30;100.00;97977.84;1222796;75;2925320;-66
2023/12/29 09:00:21;;;;;;;8.45;7.00;;;;;;;3.05;100.00;97986.47;1224083;67;2924524;-63
2023/12/29 09:02:53;;;;;;;10.10;7.65;;;;;;;3.56;100.00;97986.19;1223760;75;2921781;-66
2023/12/29 09:05:29;;;;;;;11.20;7.25;;;;;;;3.24;100.00;97995.75;1222506;75;2935138;-63
2023/12/29 09:08:02;;;;;;;10.10;7.10;;;;;;;3.62;100.00;97985.28;1223783;75;2921724;-62
2023/12/29 09:10:35;;;;;;;11.80;8.05;;;;;;;4.22;100.00;97992.44;1223036;75;2925042;-63
2023/12/29 09:13:09;;;;;;;10.30;6.85;;;;;;;4.80;95.46;97981.66;1224519;75;2923806;-64
2023/12/29 09:15:42;;;;;;;10.35;7.50;;;;;;;5.27;94.13;97994.72;1223954;75;2917758;-64
2023/12/29 09:18:15;;;;;;;8.95;6.65;;;;;;;5.80;87.66;97977.25;1223748;75;2924823;-64
2023/12/29 09:20:50;;;;;;;8.20;6.40;;;;;;;6.65;82.36;97979.19;1223772;75;2917726;-66
2023/12/29 09:23:23;;;;;;;7.05;5.70;;;;;;;7.20;76.83;97982.28;1223868;75;2924379;-65
2023/12/29 09:25:56;;;;;;;7.00;5.10;;;;;;;8.22;71.72;97971.78;1223788;75;2924980;-64
2023/12/29 09:28:29;;;;;;;7.25;5.75;;;;;;;8.36;69.62;97973.19;1223941;75;2924148;-65
2023/12/29 09:31:02;;;;;;;7.65;5.70;;;;;;;9.25;67.69;97971.34;1224216;75;2921118;-64
2023/12/29 09:33:34;;;;;;;7.15;4.90;;;;;;;9.90;65.34;97974.63;1223687;75;2940013;-63
2023/12/29 09:36:10;;;;;;;7.35;5.25;;;;;;;10.52;63.69;97976.72;1223939;75;2935256;-65
2023/12/29 09:38:46;;;;;;;9.75;6.00;;;;;;;9.78;63.24;97984.56;1224244;75;2920295;-64
2023/12/29 09:41:21;;;;;;;8.15;5.65;;;;;;;9.57;62.42;97972.63;1224258;75;2921408;-65
2023/12/29 09:43:54;;;;;;;8.95;6.10;;;;;;;9.77;63.40;97966.66;1224016;75;2921418;-63
2023/12/29 09:46:30;;;;;;;10.30;7.10;;;;;;;9.70;63.52;97962.25;1223423;75;2931869;-65
2023/12/29 09:49:07;;;;;;;12.05;8.35;;;;;;;9.94;62.93;97956.84;1223957;75;2927923;-63
2023/12/29 09:51:44;;;;;;;9.30;6.25;;;;;;;10.39;62.06;97960.56;1224547;75;2918680;-64
2023/12/29 09:54:17;;;;;;;13.75;7.55;;;;;;;9.44;64.32;97952.94;1224196;75;2920523;-62
2023/12/29 09:56:52;;;;;;;10.95;7.05;;;;;;;10.26;63.67;97946.31;1223996;75;2924296;-63
2023/12/29 09:59:26;;;;;;;9.65;6.25;;;;;;;11.00;60.78;97951.22;1224441;75;2919688;-64
2023/12/29 10:02:01;;;;;;;7.55;5.50;;;;;;;12.33;57.70;97947.50;1223359;75;2959076;-64
2023/12/29 10:04:35;;;;;;;9.00;6.30;;;;;;;12.53;55.53;97939.28;1222924;75;2921907;-64
2023/12/29 10:07:14;;;;;;;8.20;6.50;;;;;;;13.70;53.89;97942.88;1223822;75;2935515;-64
2023/12/29 10:09:48;;;;;;;8.80;6.35;;;;;;;12.60;55.94;97935.34;1225052;75;2920822;-63
2023/12/29 10:12:23;;;;;;;10.45;6.45;;;;;;;13.36;53.81;97940.59;1223623;75;2917099;-64
2023/12/29 10:15:09;;;;;;;9.00;6.10;;;;;;;15.52;49.34;97927.94;1224562;75;2920617;-62
2023/12/29 10:17:55;;;;;;;8.05;5.45;;;;;;;16.36;47.87;97918.00;1225086;75;2921247;-66
2023/12/29 10:20:46;;;;;;;7.75;5.95;;;;;;;18.61;43.32;97916.09;1224673;75;2927334;-67
2023/12/29 10:23:32;;;;;;;7.20;5.20;;;;;;;17.93;43.48;97910.59;1222938;75;2915568;-65
2023/12/29 10:26:05;;;;;;;7.45;4.70;;;;;;;18.49;41.61;97911.97;1223648;75;2927934;-63
2023/12/29 10:28:38;;;;;;;5.95;4.30;;;;;;;19.35;39.83;97902.66;1223746;75;2918884;-65
2023/12/29 10:31:13;;;;;;;6.20;4.50;;;;;;;19.32;39.16;97903.00;1223021;75;2933580;-63
2023/12/29 10:33:50;;;;;;;8.95;4.95;;;;;;;18.86;39.97;97894.59;1223882;75;2921794;-64
2023/12/29 10:36:23;;;;;;;5.85;4.55;;;;;;;19.75;40.05;97894.44;1223880;75;2918892;-63
2023/12/29 10:39:10;;;;;;;5.45;3.50;;;;;;;19.64;38.72;97891.81;1223408;75;2920019;-63
2023/12/29 10:41:43;;;;;;;6.40;5.10;;;;;;;18.00;41.99;97889.88;1222229;75;2932722;-67
2023/12/29 10:44:16;;;;;;;6.70;4.50;;;;;;;18.91;40.30;97887.47;1221663;75;2980332;-66
2023/12/29 10:46:49;;;;;;;7.45;5.15;;;;;;;16.24;41.63;97878.59;1224863;75;2925481;-65
2023/12/29 10:49:22;;;;;;;8.60;5.00;;;;;;;16.18;42.85;97873.09;1224645;75;2915568;-63
2023/12/29 10:51:55;;;;;;;6.40;4.10;;;;;;;18.50;40.83;97880.94;1223855;75;2922764;-66
2023/12/29 10:54:30;;;;;;;4.75;3.20;;;;;;;19.82;37.46;97865.28;1224838;75;2929470;-64
2023/12/29 10:57:06;;;;;;;5.90;3.80;;;;;;;18.71;38.59;97863.75;1225030;75;2920308;-66
2023/12/29 10:59:39;;;;;;;5.70;3.85;;;;;;;18.66;38.80;97864.59;1223748;75;2920104;-65
2023/12/29 11:02:14;;;;;;;5.30;3.75;;;;;;;19.87;38.23;97853.31;1224373;75;2921057;-66
2023/12/29 11:04:47;;;;;;;6.05;3.80;;;;;;;18.93;39.40;97860.72;1224204;75;2925583;-65
2023/12/29 11:07:34;;;;;;;8.30;4.00;;;;;;;17.37;39.78;97861.31;1224088;75;2935477;-66
2023/12/29 11:10:12;;;;;;;5.45;3.60;;;;;;;17.48;40.02;97850.09;1224208;75;2935727;-64
2023/12/29 11:12:46;;;;;;;4.95;2.90;;;;;;;20.50;37.08;97842.41;1224421;75;2931011;-64
2023/12/29 11:15:20;;;;;;;5.00;3.25;;;;;;;20.88;34.84;97841.31;1224410;75;2916438;-67
2023/12/29 11:17:56;;;;;;;3.45;2.30;;;;;;;22.03;34.40;97839.41;1224442;75;2919429;-63
2023/12/29 11:20:29;;;;;;;4.70;3.05;;;;;;;21.84;34.12;97826.50;1223896;75;2926432;-65
2023/12/29 11:23:04;;;;;;;4.60;2.60;;;;;;;22.96;32.72;97825.19;1224132;75;2929101;-65
2023/12/29 11:25:39;;;;;;;4.80;3.00;;;;;;;23.51;31.46;97823.16;1223453;75;2924013;-66
2023/12/29 11:28:14;;;;;;;3.80;2.60;;;;;;;22.43;31.30;97823.03;1223467;75;2922151;-67
2023/12/29 11:30:47;;;;;;;4.95;3.05;;;;;;;21.11;33.80;97822.06;1224100;75;2934811;-68
2023/12/29 11:33:27;;;;;;;5.60;2.80;;;;;;;21.98;33.57;97820.78;1224348;75;2922545;-65
2023/12/29 11:36:06;;;;;;;3.45;2.55;;;;;;;21.37;33.50;97805.19;1224528;75;2921476;-64
2023/12/29 11:38:57;;;;;;;6.05;2.60;;;;;;;23.39;31.98;97800.44;1224187;75;2918573;-64
2023/12/29 11:41:42;;;;;;;3.20;2.45;;;;;;;22.90;33.85;97802.31;1224695;75;2920065;-63
2023/12/29 11:44:14;;;;;;;3.85;2.55;;;;;;;22.92;31.98;97798.94;1223866;75;2917930;-66